Terminal Aerodrome Forecast
Issued by NWS

Home | Current Version | Previous Version | Text Only | Print | Product List | Glossary On
Versions: 1 2 3 4 5 6 7 8 9 10 11 12 13 14
259
FTUS42 KGSP 231732
TAFAND
TAF
KAND 231732Z 2318/2418 09008KT P6SM SCT250
     FM240100 10004KT P6SM SCT250
     FM240900 09004KT P6SM BKN070
     FM241400 10004KT P6SM BKN020
     FM241700 15005KT P6SM BKN040=

USA.gov is the U.S. government's official web portal to all federal, state and local government web resources and services.